Terminal Aerodrome Forecast
Issued by NWS

Home | Current Version | Previous Version | Text Only | Print | Product List | Glossary On
Versions: 1 2 3 4 5 6 7 8 9 10 11 12 13 14
000
FTUS44 KLIX 012300
TAFGPT
TAF
KGPT 012322Z 0200/0224 22008KT P6SM FEW012 SCT020 BKN050
      TEMPO 0202/0206 5SM -SHRA BKN020
     FM020600 25008KT P6SM OVC020
      TEMPO 0206/0208 5SM -SHRA
     FM020800 30011KT P6SM OVC015
     FM021100 33015KT P6SM BKN035
     FM021400 34016KT P6SM SCT100=

USA.gov is the U.S. government's official web portal to all federal, state and local government web resources and services.